Terminal Aerodrome Forecast
Issued by NWS

Home | Current Version | Previous Version | Text Only | Print | Product List | Glossary On
Versions: 1 2 3 4 5 6 7 8 9 10 11 12 13 14 15 16 17 18 19 20 21 22 23 24 25 26 27 28 29 30 31
378
FTUS41 KALY 010600 CCA
TAFPSF
TAF COR
KPSF 010600Z 0106/0206 06010G17KT 5SM BR OVC015
     FM010800 06007KT 3SM -DZ BR BKN009 OVC015
     FM011500 05004KT 4SM -DZ BR OVC010
     FM020200 05004KT 2SM -RA BR OVC009=

USA.gov is the U.S. government's official web portal to all federal, state and local government web resources and services.